createdAt,value
2018-07-26T00:00:57.527Z,22.35
2018-07-26T00:02:04.277Z,22.33
2018-07-26T00:03:11.568Z,22.30
2018-07-26T00:04:17.881Z,22.33
2018-07-26T00:05:24.019Z,22.38
2018-07-26T00:06:30.637Z,22.38
2018-07-26T00:07:37.265Z,22.33
2018-07-26T00:08:43.888Z,22.23
2018-07-26T00:09:51.018Z,22.16
2018-07-26T00:10:57.620Z,22.13
2018-07-26T00:12:04.752Z,22.16
2018-07-26T00:13:10.374Z,22.26
2018-07-26T00:14:16.993Z,22.34
2018-07-26T00:15:23.620Z,22.42
2018-07-26T00:16:30.243Z,22.49
2018-07-26T00:17:37.862Z,22.59
2018-07-26T00:18:43.489Z,22.62
2018-07-26T00:19:50.145Z,22.63
2018-07-26T00:20:57.234Z,22.66
2018-07-26T00:22:03.368Z,22.69
2018-07-26T00:23:10.011Z,22.67
2018-07-26T00:24:16.597Z,22.69
2018-07-26T00:25:23.224Z,22.74
2018-07-26T00:26:29.844Z,22.71
2018-07-26T00:27:36.996Z,22.75
2018-07-26T00:28:43.081Z,22.74
2018-07-26T00:29:50.264Z,22.74
2018-07-26T00:30:56.334Z,22.70
2018-07-26T00:32:02.956Z,22.63
2018-07-26T00:33:09.588Z,22.59
2018-07-26T00:34:17.008Z,22.56
2018-07-26T00:35:23.331Z,22.46
2018-07-26T00:36:29.459Z,22.38
2018-07-26T00:37:36.088Z,22.38
2018-07-26T00:38:43.205Z,22.32
2018-07-26T00:39:49.332Z,22.23
2018-07-26T00:40:55.964Z,22.21
2018-07-26T00:42:02.573Z,22.19
2018-07-26T00:43:09.196Z,22.14
2018-07-26T00:44:16.815Z,22.07
2018-07-26T00:45:22.960Z,21.95
2018-07-26T00:46:29.065Z,21.87
2018-07-26T00:47:35.697Z,21.90
2018-07-26T00:48:42.831Z,21.91
2018-07-26T00:49:48.945Z,21.93
2018-07-26T00:50:55.582Z,21.90
2018-07-26T00:52:02.276Z,21.84
2018-07-26T00:53:08.832Z,21.79
2018-07-26T00:54:15.955Z,21.76
2018-07-26T00:55:22.576Z,21.77
2018-07-26T00:56:28.715Z,21.73
2018-07-26T00:57:35.323Z,21.74
2018-07-26T00:58:41.959Z,21.73
2018-07-26T00:59:49.080Z,21.72
2018-07-26T01:00:55.213Z,21.70
2018-07-26T01:02:01.827Z,21.66
2018-07-26T01:03:08.453Z,21.68
2018-07-26T01:04:15.071Z,21.63
2018-07-26T01:05:21.711Z,21.55
2018-07-26T01:06:28.333Z,21.49
2018-07-26T01:07:34.940Z,21.41
2018-07-26T01:08:42.055Z,21.26
2018-07-26T01:09:48.267Z,21.17
2018-07-26T01:10:54.816Z,21.12
2018-07-26T01:12:01.451Z,21.13
2018-07-26T01:13:08.052Z,21.09
2018-07-26T01:14:14.666Z,21.00
2018-07-26T01:15:22.286Z,20.91
2018-07-26T01:16:28.407Z,20.84
2018-07-26T01:17:34.528Z,20.86
2018-07-26T01:18:42.147Z,20.95
2018-07-26T01:19:47.763Z,21.03
2018-07-26T01:20:54.394Z,20.91
2018-07-26T01:22:01.497Z,20.77
2018-07-26T01:23:08.132Z,20.68
2018-07-26T01:24:14.268Z,20.68
2018-07-26T01:25:21.388Z,20.65
2018-07-26T01:26:27.496Z,20.64
2018-07-26T01:27:34.126Z,20.62
2018-07-26T01:28:40.737Z,20.59
2018-07-26T01:29:47.368Z,20.53
2018-07-26T01:30:53.983Z,20.50
2018-07-26T01:32:00.602Z,20.49
2018-07-26T01:33:07.707Z,20.48
2018-07-26T01:34:13.829Z,20.45
2018-07-26T01:35:20.443Z,20.39
2018-07-26T01:36:27.060Z,20.35
2018-07-26T01:37:33.674Z,20.25
2018-07-26T01:38:41.279Z,20.11
2018-07-26T01:39:46.899Z,19.98
2018-07-26T01:40:53.525Z,19.83
2018-07-26T01:42:00.628Z,19.71
2018-07-26T01:43:06.746Z,19.60
2018-07-26T01:44:13.853Z,19.52
2018-07-26T01:45:19.967Z,19.46
2018-07-26T01:46:27.074Z,19.40
2018-07-26T01:47:33.269Z,19.35
2018-07-26T01:48:39.796Z,19.32
2018-07-26T01:49:49.344Z,19.28
2018-07-26T01:50:54.012Z,19.26
2018-07-26T01:51:59.642Z,19.23
2018-07-26T01:53:06.722Z,19.19
2018-07-26T01:54:12.838Z,19.15
2018-07-26T01:55:19.444Z,19.12
2018-07-26T01:56:26.056Z,19.08
2018-07-26T01:57:32.662Z,19.04
2018-07-26T01:58:39.261Z,19.02
2018-07-26T01:59:45.870Z,19.02
2018-07-26T02:00:52.481Z,19.01
2018-07-26T02:01:59.084Z,18.99
2018-07-26T02:03:06.189Z,18.98
2018-07-26T02:04:12.297Z,18.99
2018-07-26T02:05:18.891Z,18.99
2018-07-26T02:06:25.500Z,18.92
2018-07-26T02:07:32.148Z,18.91
2018-07-26T02:08:38.710Z,18.89
2018-07-26T02:09:45.280Z,18.81
2018-07-26T02:10:51.886Z,18.81
2018-07-26T02:11:58.964Z,18.80
2018-07-26T02:13:05.545Z,18.73
2018-07-26T02:14:11.652Z,18.68
2018-07-26T02:15:19.727Z,18.61
2018-07-26T02:16:24.834Z,18.53
2018-07-26T02:17:31.414Z,18.49
2018-07-26T02:18:37.997Z,18.50
2018-07-26T02:19:44.583Z,18.49
2018-07-26T02:20:51.658Z,18.52
2018-07-26T02:21:57.737Z,18.52
2018-07-26T02:23:04.314Z,18.54
2018-07-26T02:24:11.088Z,18.54
2018-07-26T02:25:17.482Z,18.52
2018-07-26T02:26:24.543Z,18.44
2018-07-26T02:27:31.632Z,18.35
2018-07-26T02:28:37.212Z,18.26
2018-07-26T02:29:44.286Z,18.22
2018-07-26T02:30:50.427Z,18.16
2018-07-26T02:31:57.000Z,18.11
2018-07-26T02:33:03.535Z,18.08
2018-07-26T02:34:10.590Z,18.08
2018-07-26T02:35:16.687Z,18.08
2018-07-26T02:36:23.467Z,18.24
2018-07-26T02:37:29.843Z,18.32
2018-07-26T02:38:36.420Z,18.28
2018-07-26T02:39:43.315Z,18.24
2018-07-26T02:40:49.591Z,18.18
2018-07-26T02:41:56.634Z,18.17
2018-07-26T02:43:03.256Z,18.15
2018-07-26T02:44:09.776Z,18.09
2018-07-26T02:45:15.842Z,18.06
2018-07-26T02:46:22.426Z,18.07
2018-07-26T02:47:28.983Z,18.02
2018-07-26T02:48:36.040Z,18.01
2018-07-26T02:49:42.109Z,17.96
2018-07-26T02:50:48.664Z,17.93
2018-07-26T02:51:55.726Z,18.06
2018-07-26T02:53:02.289Z,18.07
2018-07-26T02:54:08.826Z,18.07
2018-07-26T02:55:14.908Z,18.01
2018-07-26T02:56:21.466Z,17.98
2018-07-26T02:57:28.029Z,17.98
2018-07-26T02:58:34.571Z,18.03
2018-07-26T02:59:41.150Z,18.06
2018-07-26T03:00:47.712Z,18.02
2018-07-26T03:01:54.468Z,17.95
2018-07-26T03:03:02.320Z,17.90
2018-07-26T03:04:07.880Z,17.87
2018-07-26T03:05:14.455Z,17.86
2018-07-26T03:06:20.533Z,17.80
2018-07-26T03:07:27.107Z,17.80
2018-07-26T03:08:33.654Z,17.88
2018-07-26T03:09:40.215Z,17.84
2018-07-26T03:10:46.783Z,17.83
2018-07-26T03:11:53.349Z,17.81
2018-07-26T03:12:59.906Z,17.85
2018-07-26T03:14:06.483Z,17.83
2018-07-26T03:15:13.534Z,17.77
2018-07-26T03:16:19.622Z,17.73
2018-07-26T03:17:26.171Z,17.67
2018-07-26T03:18:32.731Z,17.61
2018-07-26T03:19:39.290Z,17.59
2018-07-26T03:20:45.914Z,17.59
2018-07-26T03:21:52.426Z,17.53
2018-07-26T03:22:58.989Z,17.51
2018-07-26T03:24:06.043Z,17.57
2018-07-26T03:25:12.121Z,17.57
2018-07-26T03:26:18.691Z,17.55
2018-07-26T03:27:25.240Z,17.52
2018-07-26T03:28:31.812Z,17.48
2018-07-26T03:29:38.373Z,17.42
2018-07-26T03:30:44.923Z,17.41
2018-07-26T03:31:52.489Z,17.41
2018-07-26T03:32:59.551Z,17.36
2018-07-26T03:34:04.608Z,17.36
2018-07-26T03:35:11.176Z,17.36
2018-07-26T03:36:17.738Z,17.36
2018-07-26T03:37:24.299Z,17.35
2018-07-26T03:38:30.860Z,17.30
2018-07-26T03:39:37.412Z,17.29
2018-07-26T03:40:43.983Z,17.27
2018-07-26T03:41:51.040Z,17.25
2018-07-26T03:42:57.102Z,17.35
2018-07-26T03:44:04.142Z,17.47
2018-07-26T03:45:10.700Z,17.48
2018-07-26T03:46:16.761Z,17.41
2018-07-26T03:47:23.321Z,17.33
2018-07-26T03:48:29.885Z,17.33
2018-07-26T03:49:36.442Z,17.27
2018-07-26T03:50:42.987Z,17.25
2018-07-26T03:51:50.538Z,17.22
2018-07-26T03:52:56.090Z,17.21
2018-07-26T03:54:03.091Z,17.19
2018-07-26T03:55:09.190Z,17.20
2018-07-26T03:56:17.265Z,17.22
2018-07-26T03:57:22.307Z,17.25
2018-07-26T03:58:28.848Z,17.26
2018-07-26T03:59:35.413Z,17.33
2018-07-26T04:00:42.443Z,17.50
2018-07-26T04:01:48.512Z,17.52
2018-07-26T04:02:55.057Z,17.52
2018-07-26T04:04:01.633Z,17.51
2018-07-26T04:05:08.215Z,17.53
2018-07-26T04:06:14.735Z,17.51
2018-07-26T04:07:21.302Z,17.46
2018-07-26T04:08:28.846Z,17.48
2018-07-26T04:09:34.417Z,17.51
2018-07-26T04:10:41.450Z,17.53
2018-07-26T04:11:47.541Z,17.53
2018-07-26T04:12:54.586Z,17.55
2018-07-26T04:14:00.662Z,17.57
2018-07-26T04:15:07.226Z,17.56
2018-07-26T04:16:14.269Z,17.56
2018-07-26T04:17:20.649Z,17.52
2018-07-26T04:18:26.907Z,17.50
2018-07-26T04:19:33.492Z,17.50
2018-07-26T04:20:40.520Z,17.55
2018-07-26T04:21:47.116Z,17.59
2018-07-26T04:22:54.168Z,17.63
2018-07-26T04:23:59.712Z,17.68
2018-07-26T04:25:06.779Z,17.79
2018-07-26T04:26:13.349Z,17.92
2018-07-26T04:27:19.910Z,17.98
2018-07-26T04:28:26.497Z,18.01
2018-07-26T04:30:39.132Z,18.02
2018-07-26T04:31:45.802Z,18.03
2018-07-26T04:32:52.272Z,18.09
2018-07-26T04:33:59.343Z,18.12
2018-07-26T04:35:05.418Z,18.20
2018-07-26T04:36:11.983Z,18.24
2018-07-26T04:37:18.561Z,18.24
2018-07-26T04:38:25.131Z,18.26
2018-07-26T04:39:31.700Z,18.31
2018-07-26T04:40:38.282Z,18.35
2018-07-26T04:41:44.859Z,18.38
2018-07-26T04:42:51.450Z,18.40
2018-07-26T04:43:58.531Z,18.41
2018-07-26T04:45:04.593Z,18.42
2018-07-26T04:46:11.269Z,18.44
2018-07-26T04:47:17.764Z,18.47
2018-07-26T04:48:24.353Z,18.50
2018-07-26T04:49:31.426Z,18.54
2018-07-26T04:50:37.540Z,18.56
2018-07-26T04:51:44.138Z,18.61
2018-07-26T04:52:50.751Z,18.67
2018-07-26T04:53:57.322Z,18.74
2018-07-26T04:55:03.905Z,18.80
2018-07-26T04:56:10.998Z,18.83
2018-07-26T04:57:17.108Z,18.83
2018-07-26T04:58:23.708Z,18.84
2018-07-26T04:59:30.297Z,18.88
2018-07-26T05:00:36.911Z,18.93
2018-07-26T05:01:43.505Z,18.97
2018-07-26T05:02:50.632Z,19.04
2018-07-26T05:03:57.725Z,19.06
2018-07-26T05:05:03.333Z,19.08
2018-07-26T05:06:09.939Z,19.12
2018-07-26T05:07:16.547Z,19.15
2018-07-26T05:08:23.142Z,19.19
2018-07-26T05:09:29.744Z,19.27
2018-07-26T05:10:36.374Z,19.35
2018-07-26T05:11:42.953Z,19.42
2018-07-26T05:12:49.588Z,19.45
2018-07-26T05:13:56.189Z,19.51
2018-07-26T05:15:02.798Z,19.54
2018-07-26T05:16:09.409Z,19.57
2018-07-26T05:17:16.037Z,19.58
2018-07-26T05:18:23.144Z,19.62
2018-07-26T05:19:29.284Z,19.71
2018-07-26T05:20:35.901Z,19.82
2018-07-26T05:21:42.519Z,19.91
2018-07-26T05:22:49.133Z,19.95
2018-07-26T05:23:55.756Z,19.96
2018-07-26T05:25:02.875Z,20.01
2018-07-26T05:26:09.489Z,20.10
2018-07-26T05:27:15.641Z,20.25
2018-07-26T05:28:22.264Z,20.36
2018-07-26T05:29:28.928Z,20.48
2018-07-26T05:30:35.516Z,20.64
2018-07-26T05:31:42.148Z,20.76
2018-07-26T05:32:48.796Z,20.77
2018-07-26T05:33:55.419Z,20.75
2018-07-26T05:35:02.051Z,20.74
2018-07-26T05:36:08.681Z,20.76
2018-07-26T05:37:15.434Z,20.74
2018-07-26T05:38:21.967Z,20.72
2018-07-26T05:39:29.614Z,20.81
2018-07-26T05:40:35.248Z,20.95
2018-07-26T05:41:41.909Z,21.17
2018-07-26T05:42:49.046Z,21.40
2018-07-26T05:43:55.190Z,21.57
2018-07-26T05:45:02.421Z,21.75
2018-07-26T05:46:08.983Z,21.87
2018-07-26T05:47:15.633Z,22.03
2018-07-26T05:48:21.780Z,22.27
2018-07-26T05:49:28.422Z,22.52
2018-07-26T05:50:35.082Z,22.65
2018-07-26T05:51:41.720Z,22.77
2018-07-26T05:52:48.375Z,22.84
2018-07-26T05:53:55.023Z,22.92
2018-07-26T05:55:01.665Z,22.98
2018-07-26T05:56:08.326Z,23.04
2018-07-26T05:57:15.781Z,23.16
2018-07-26T05:58:21.669Z,23.20
2018-07-26T05:59:28.288Z,23.21
2018-07-26T06:00:34.955Z,23.21
2018-07-26T06:01:42.100Z,23.26
2018-07-26T06:02:48.264Z,23.33
2018-07-26T06:03:54.929Z,23.38
2018-07-26T06:05:01.583Z,23.47
2018-07-26T06:06:08.247Z,23.55
2018-07-26T06:07:14.911Z,23.60
2018-07-26T06:08:21.587Z,23.69
2018-07-26T06:09:28.236Z,23.78
2018-07-26T06:10:34.906Z,23.90
2018-07-26T06:11:41.768Z,23.97
2018-07-26T06:12:48.252Z,24.04
2018-07-26T06:13:54.914Z,24.07
2018-07-26T06:15:01.583Z,24.06
2018-07-26T06:16:08.252Z,24.08
2018-07-26T06:17:15.513Z,24.10
2018-07-26T06:18:21.590Z,24.20
2018-07-26T06:19:28.258Z,24.28
2018-07-26T06:20:34.993Z,24.37
2018-07-26T06:21:41.614Z,24.43
2018-07-26T06:22:48.303Z,24.48
2018-07-26T06:23:55.469Z,24.53
2018-07-26T06:25:01.659Z,24.57
2018-07-26T06:26:08.373Z,24.62
2018-07-26T06:27:15.026Z,24.69
2018-07-26T06:28:21.794Z,24.75
2018-07-26T06:29:28.396Z,24.80
2018-07-26T06:30:35.081Z,24.81
2018-07-26T06:31:41.768Z,24.81
2018-07-26T06:32:48.461Z,24.82
2018-07-26T06:33:55.668Z,24.87
2018-07-26T06:35:01.849Z,24.91
2018-07-26T06:36:08.555Z,24.96
2018-07-26T06:37:15.249Z,24.97
2018-07-26T06:38:21.954Z,24.96
2018-07-26T06:39:28.674Z,25.01
2018-07-26T06:40:35.838Z,25.06
2018-07-26T06:41:42.043Z,25.11
2018-07-26T06:42:48.772Z,25.17
2018-07-26T06:43:55.463Z,25.23
2018-07-26T06:45:02.161Z,25.24
2018-07-26T06:46:08.888Z,25.26
2018-07-26T06:47:16.084Z,25.29
2018-07-26T06:48:22.303Z,25.34
2018-07-26T06:49:29.024Z,25.35
2018-07-26T06:50:35.732Z,25.36
2018-07-26T06:51:42.946Z,25.40
2018-07-26T06:52:49.200Z,25.43
2018-07-26T06:53:55.887Z,25.45
2018-07-26T06:55:03.109Z,25.47
2018-07-26T06:56:09.339Z,25.51
2018-07-26T06:57:16.058Z,25.53
2018-07-26T06:58:22.811Z,25.52
2018-07-26T06:59:29.534Z,25.55
2018-07-26T07:00:36.258Z,25.60
2018-07-26T07:01:43.000Z,25.62
2018-07-26T07:02:49.740Z,25.64
2018-07-26T07:03:56.476Z,25.66
2018-07-26T07:05:03.224Z,25.65
2018-07-26T07:06:10.466Z,25.64
2018-07-26T07:07:16.725Z,25.69
2018-07-26T07:08:23.473Z,25.71
2018-07-26T07:09:30.225Z,25.70
2018-07-26T07:10:36.984Z,25.67
2018-07-26T07:11:43.727Z,25.67
2018-07-26T07:12:50.492Z,25.72
2018-07-26T07:13:57.730Z,25.77
2018-07-26T07:15:03.998Z,25.77
2018-07-26T07:16:10.752Z,25.81
2018-07-26T07:17:17.513Z,25.87
2018-07-26T07:18:24.271Z,25.93
2018-07-26T07:19:31.031Z,26.00
2018-07-26T07:20:38.487Z,26.06
2018-07-26T07:21:44.559Z,26.10
2018-07-26T07:22:51.341Z,26.15
2018-07-26T07:23:58.125Z,26.20
2018-07-26T07:25:04.874Z,26.24
2018-07-26T07:26:11.647Z,26.31
2018-07-26T07:27:18.425Z,26.35
2018-07-26T07:28:25.212Z,26.32
2018-07-26T07:29:31.973Z,26.37
2018-07-26T07:30:38.765Z,26.45
2018-07-26T07:31:45.539Z,26.46
2018-07-26T07:32:52.641Z,26.51
2018-07-26T07:33:59.136Z,26.50
2018-07-26T07:35:05.952Z,26.54
2018-07-26T07:36:12.704Z,26.75
2018-07-26T07:37:19.999Z,27.00
2018-07-26T07:38:26.310Z,27.22
2018-07-26T07:39:33.107Z,27.33
2018-07-26T07:40:39.912Z,27.32
2018-07-26T07:41:46.727Z,27.24
2018-07-26T07:42:53.512Z,27.21
2018-07-26T07:44:00.386Z,27.21
2018-07-26T07:45:07.127Z,27.19
2018-07-26T07:46:13.942Z,27.20
2018-07-26T07:47:20.893Z,27.26
2018-07-26T07:48:27.567Z,27.37
2018-07-26T07:49:34.410Z,27.48
2018-07-26T07:50:41.201Z,27.49
2018-07-26T07:51:48.004Z,27.47
2018-07-26T07:52:55.340Z,27.40
2018-07-26T07:54:01.652Z,27.40
2018-07-26T07:55:08.472Z,27.49
2018-07-26T07:56:15.285Z,27.54
2018-07-26T07:57:22.121Z,27.52
2018-07-26T07:58:28.955Z,27.49
2018-07-26T07:59:35.805Z,27.59
2018-07-26T08:00:42.608Z,27.69
2018-07-26T08:01:49.466Z,27.73
2018-07-26T08:02:56.288Z,27.74
2018-07-26T08:04:03.117Z,27.76
2018-07-26T08:05:09.968Z,27.75
2018-07-26T08:06:16.790Z,27.72
2018-07-26T08:07:23.626Z,27.65
2018-07-26T08:08:30.479Z,27.61
2018-07-26T08:09:37.318Z,27.59
2018-07-26T08:10:44.670Z,27.64
2018-07-26T08:11:51.026Z,27.75
2018-07-26T08:12:57.861Z,27.90
2018-07-26T08:14:05.244Z,27.92
2018-07-26T08:15:11.573Z,27.90
2018-07-26T08:16:18.433Z,27.88
2018-07-26T08:17:25.287Z,27.85
2018-07-26T08:18:32.153Z,27.84
2018-07-26T08:19:39.006Z,27.85
2018-07-26T08:20:45.868Z,27.86
2018-07-26T08:21:53.328Z,27.90
2018-07-26T08:22:59.606Z,27.93
2018-07-26T08:24:06.965Z,28.02
2018-07-26T08:25:13.346Z,28.09
2018-07-26T08:26:20.217Z,28.11
2018-07-26T08:27:27.085Z,28.15
2018-07-26T08:28:33.973Z,28.16
2018-07-26T08:29:40.856Z,28.19
2018-07-26T08:30:48.264Z,28.21
2018-07-26T08:31:54.593Z,28.20
2018-07-26T08:33:01.465Z,28.26
2018-07-26T08:34:08.853Z,28.30
2018-07-26T08:35:15.328Z,28.39
2018-07-26T08:36:22.126Z,28.36
2018-07-26T08:37:29.007Z,28.35
2018-07-26T08:38:35.907Z,28.34
2018-07-26T08:39:42.776Z,28.39
2018-07-26T08:40:49.660Z,28.45
2018-07-26T08:41:56.562Z,28.48
2018-07-26T08:43:03.440Z,28.52
2018-07-26T08:44:10.353Z,28.53
2018-07-26T08:45:17.227Z,28.58
2018-07-26T08:46:24.124Z,28.67
2018-07-26T08:47:31.020Z,28.71
2018-07-26T08:48:37.921Z,28.71
2018-07-26T08:49:44.814Z,28.79
2018-07-26T08:50:51.718Z,28.90
2018-07-26T08:51:58.624Z,28.98
2018-07-26T08:53:05.515Z,29.01
2018-07-26T08:54:12.485Z,29.00
2018-07-26T08:55:19.335Z,28.93
2018-07-26T08:56:26.223Z,28.89
2018-07-26T08:57:33.132Z,28.92
2018-07-26T08:58:40.061Z,29.02
2018-07-26T08:59:46.971Z,29.10
2018-07-26T09:00:54.854Z,29.13
2018-07-26T09:02:00.771Z,29.18
2018-07-26T09:03:07.683Z,29.24
2018-07-26T09:04:14.596Z,29.32
2018-07-26T09:05:22.192Z,29.39
2018-07-26T09:06:28.543Z,29.47
2018-07-26T09:07:35.346Z,29.52
2018-07-26T09:08:42.285Z,29.56
2018-07-26T09:09:49.222Z,29.63
2018-07-26T09:10:56.134Z,29.65
2018-07-26T09:12:03.025Z,29.79
2018-07-26T09:13:10.465Z,29.80
2018-07-26T09:14:16.889Z,29.86
2018-07-26T09:15:24.295Z,29.92
2018-07-26T09:16:30.747Z,29.96
2018-07-26T09:17:37.678Z,30.04
2018-07-26T09:18:45.114Z,30.08
2018-07-26T09:19:51.635Z,30.10
2018-07-26T09:20:58.484Z,30.11
2018-07-26T09:22:05.919Z,30.11
2018-07-26T09:23:12.366Z,30.14
2018-07-26T09:24:19.306Z,30.22
2018-07-26T09:25:26.748Z,30.20
2018-07-26T09:26:33.199Z,30.11
2018-07-26T09:27:40.140Z,30.07
2018-07-26T09:28:47.082Z,30.13
2018-07-26T09:29:54.035Z,30.29
2018-07-26T09:31:00.974Z,30.42
2018-07-26T09:32:08.436Z,30.54
2018-07-26T09:33:14.913Z,30.59
2018-07-26T09:34:21.830Z,30.61
2018-07-26T09:35:29.283Z,30.64
2018-07-26T09:36:35.750Z,30.66
2018-07-26T09:37:42.691Z,30.72
2018-07-26T09:38:50.012Z,30.82
2018-07-26T09:39:56.612Z,30.88
2018-07-26T09:41:03.633Z,30.86
2018-07-26T09:42:10.538Z,30.87
2018-07-26T09:43:17.992Z,30.88
2018-07-26T09:44:25.475Z,30.90
2018-07-26T09:45:31.444Z,30.95
2018-07-26T09:46:38.401Z,30.98
2018-07-26T09:47:45.365Z,31.08
2018-07-26T09:48:52.848Z,31.13
2018-07-26T09:49:59.819Z,31.14
2018-07-26T09:51:07.794Z,31.10
2018-07-26T09:52:14.066Z,31.13
2018-07-26T09:53:20.747Z,31.18
2018-07-26T09:54:27.224Z,31.23
2018-07-26T09:55:34.207Z,31.29
2018-07-26T09:56:41.180Z,31.38
2018-07-26T09:57:48.664Z,31.40
2018-07-26T09:58:55.652Z,31.50
2018-07-26T10:00:02.151Z,31.61
2018-07-26T10:01:09.124Z,31.65
2018-07-26T10:02:16.114Z,31.66
2018-07-26T10:03:23.094Z,31.70
2018-07-26T10:04:30.094Z,31.75
2018-07-26T10:05:37.578Z,31.75
2018-07-26T10:06:44.580Z,31.74
2018-07-26T10:07:51.587Z,31.72
2018-07-26T10:08:58.550Z,31.68
2018-07-26T10:10:05.065Z,31.67
2018-07-26T10:11:12.068Z,31.68
2018-07-26T10:12:19.073Z,31.71
2018-07-26T10:13:26.061Z,31.60
2018-07-26T10:14:33.073Z,31.51
2018-07-26T10:15:40.064Z,31.51
2018-07-26T10:16:47.064Z,31.69
2018-07-26T10:17:54.075Z,31.79
2018-07-26T10:19:01.569Z,31.84
2018-07-26T10:20:08.123Z,31.86
2018-07-26T10:21:15.082Z,31.86
2018-07-26T10:22:22.579Z,32.01
2018-07-26T10:23:29.092Z,32.21
2018-07-26T10:24:36.105Z,32.33
2018-07-26T10:25:43.595Z,32.41
2018-07-26T10:26:50.125Z,32.48
2018-07-26T10:27:57.129Z,32.54
2018-07-26T10:29:04.141Z,32.55
2018-07-26T10:30:11.165Z,32.54
2018-07-26T10:31:18.275Z,32.50
2018-07-26T10:32:25.207Z,32.47
2018-07-26T10:33:32.222Z,32.46
2018-07-26T10:34:39.249Z,32.43
2018-07-26T10:35:46.262Z,32.42
2018-07-26T10:36:53.291Z,32.51
2018-07-26T10:38:00.314Z,32.50
2018-07-26T10:39:07.356Z,32.48
2018-07-26T10:40:14.371Z,32.47
2018-07-26T10:41:21.383Z,32.53
2018-07-26T10:42:28.433Z,32.64
2018-07-26T10:43:35.485Z,32.61
2018-07-26T10:44:42.463Z,32.45
2018-07-26T10:45:49.483Z,32.32
2018-07-26T10:46:56.536Z,32.27
2018-07-26T10:48:03.536Z,32.29
2018-07-26T10:49:10.544Z,32.37
2018-07-26T10:50:17.581Z,32.53
2018-07-26T10:51:24.597Z,32.74
2018-07-26T10:52:31.618Z,32.88
2018-07-26T10:53:38.639Z,33.00
2018-07-26T10:54:45.666Z,33.02
2018-07-26T10:55:52.695Z,33.09
2018-07-26T10:56:59.715Z,33.17
2018-07-26T10:58:06.739Z,33.27
2018-07-26T10:59:13.758Z,33.32
2018-07-26T11:00:20.882Z,33.31
2018-07-26T11:01:27.818Z,33.38
2018-07-26T11:02:34.868Z,33.51
2018-07-26T11:03:41.897Z,33.52
2018-07-26T11:04:48.922Z,33.39
2018-07-26T11:05:55.960Z,33.20
2018-07-26T11:07:02.991Z,33.05
2018-07-26T11:08:10.519Z,32.94
2018-07-26T11:09:17.062Z,32.93
2018-07-26T11:10:24.599Z,33.02
2018-07-26T11:11:31.138Z,33.10
2018-07-26T11:12:38.189Z,33.22
2018-07-26T11:13:45.250Z,33.44
2018-07-26T11:14:52.383Z,33.56
2018-07-26T11:15:59.590Z,33.67
2018-07-26T11:17:06.880Z,33.74
2018-07-26T11:18:14.757Z,33.75
2018-07-26T11:19:21.699Z,33.82
2018-07-26T11:20:29.224Z,33.89
2018-07-26T11:21:36.801Z,33.94
2018-07-26T11:22:44.441Z,33.99
2018-07-26T11:23:52.124Z,33.98
2018-07-26T11:24:59.873Z,34.02
2018-07-26T11:26:07.650Z,34.07
2018-07-26T11:27:15.482Z,34.07
2018-07-26T11:28:23.356Z,34.05
2018-07-26T11:29:31.315Z,34.06
2018-07-26T11:30:39.202Z,34.08
2018-07-26T11:31:47.280Z,34.20
2018-07-26T11:32:55.275Z,34.30
2018-07-26T11:34:03.211Z,34.15
2018-07-26T11:35:11.266Z,34.02
2018-07-26T11:36:19.346Z,33.95
2018-07-26T11:37:27.443Z,33.98
2018-07-26T11:38:35.557Z,34.04
2018-07-26T11:39:43.704Z,33.89
2018-07-26T11:40:51.866Z,33.61
2018-07-26T11:42:00.035Z,33.45
2018-07-26T11:43:08.714Z,33.41
2018-07-26T11:44:16.422Z,33.58
2018-07-26T11:45:24.648Z,33.73
2018-07-26T11:46:32.890Z,33.95
2018-07-26T11:47:41.142Z,34.17
2018-07-26T11:48:50.419Z,34.28
2018-07-26T11:49:57.724Z,34.21
2018-07-26T11:51:06.506Z,34.16
2018-07-26T11:52:14.328Z,34.26
2018-07-26T11:53:22.656Z,34.39
2018-07-26T11:54:30.994Z,34.57
2018-07-26T11:55:39.353Z,34.65
2018-07-26T11:56:47.771Z,34.57
2018-07-26T11:57:56.099Z,34.47
2018-07-26T11:59:04.480Z,34.47
2018-07-26T12:00:12.877Z,34.57
2018-07-26T12:01:21.273Z,34.63
2018-07-26T12:02:29.746Z,34.61
2018-07-26T12:03:38.100Z,34.58
2018-07-26T12:04:46.532Z,34.67
2018-07-26T12:05:54.967Z,34.72
2018-07-26T12:07:03.403Z,34.72
2018-07-26T12:08:11.906Z,34.67
2018-07-26T12:09:20.319Z,34.31
2018-07-26T12:10:28.759Z,34.01
2018-07-26T12:11:37.211Z,33.88
2018-07-26T12:12:45.660Z,34.02
2018-07-26T12:13:54.118Z,34.19
2018-07-26T12:15:02.568Z,34.36
2018-07-26T12:16:11.053Z,34.59
2018-07-26T12:17:19.533Z,34.82
2018-07-26T12:18:28.036Z,34.95
2018-07-26T12:19:36.588Z,35.02
2018-07-26T12:20:45.051Z,35.11
2018-07-26T12:21:53.554Z,35.19
2018-07-26T12:23:02.091Z,35.18
2018-07-26T12:24:10.613Z,35.05
2018-07-26T12:25:19.153Z,34.81
2018-07-26T12:26:27.689Z,34.55
2018-07-26T12:27:36.248Z,34.44
2018-07-26T12:28:44.794Z,34.61
2018-07-26T12:29:53.371Z,34.76
2018-07-26T12:31:01.948Z,34.96
2018-07-26T12:32:10.519Z,35.13
2018-07-26T12:33:19.105Z,35.20
2018-07-26T12:34:27.680Z,35.36
2018-07-26T12:35:36.260Z,35.47
2018-07-26T12:36:44.845Z,35.50
2018-07-26T12:37:53.430Z,35.53
2018-07-26T12:39:02.016Z,35.63
2018-07-26T12:40:10.584Z,35.78
2018-07-26T12:41:19.277Z,35.90
2018-07-26T12:42:27.763Z,35.86
2018-07-26T12:43:36.393Z,35.67
2018-07-26T12:44:44.925Z,35.74
2018-07-26T12:45:53.508Z,35.82
2018-07-26T12:47:02.075Z,35.77
2018-07-26T12:48:11.135Z,35.73
2018-07-26T12:49:19.218Z,35.67
2018-07-26T12:50:27.801Z,35.73
2018-07-26T12:51:36.362Z,35.85
2018-07-26T12:52:44.957Z,35.91
2018-07-26T12:53:53.529Z,35.95
2018-07-26T12:55:02.620Z,36.13
2018-07-26T12:56:10.727Z,36.29
2018-07-26T12:57:19.321Z,36.29
2018-07-26T12:58:27.911Z,36.39
2018-07-26T12:59:36.508Z,36.39
2018-07-26T13:00:45.091Z,36.31
2018-07-26T13:01:53.712Z,36.23
2018-07-26T13:03:02.227Z,36.20
2018-07-26T13:04:10.800Z,36.12
2018-07-26T13:05:19.361Z,36.05
2018-07-26T13:06:27.938Z,35.85
2018-07-26T13:07:36.474Z,35.60
2018-07-26T13:08:45.028Z,35.40
2018-07-26T13:09:53.553Z,35.51
2018-07-26T13:11:02.081Z,35.68
2018-07-26T13:12:10.643Z,35.87
2018-07-26T13:13:19.130Z,35.77
2018-07-26T13:14:27.645Z,35.84
2018-07-26T13:15:36.172Z,35.83
2018-07-26T13:16:44.674Z,35.73
2018-07-26T13:17:53.279Z,35.77
2018-07-26T13:19:01.659Z,35.77
2018-07-26T13:20:10.155Z,35.76
2018-07-26T13:21:18.675Z,35.90
2018-07-26T13:22:27.263Z,36.25
2018-07-26T13:23:35.685Z,36.50
2018-07-26T13:24:44.212Z,36.71
2018-07-26T13:25:52.740Z,36.89
2018-07-26T13:27:01.258Z,36.97
2018-07-26T13:28:09.794Z,37.05
2018-07-26T13:29:18.355Z,37.17
2018-07-26T13:30:26.908Z,37.38
2018-07-26T13:31:35.477Z,37.38
2018-07-26T13:32:44.035Z,37.15
2018-07-26T13:33:52.608Z,36.85
2018-07-26T13:35:01.166Z,36.60
2018-07-26T13:36:09.741Z,36.34
2018-07-26T13:37:18.275Z,36.37
2018-07-26T13:38:26.794Z,36.36
2018-07-26T13:39:36.275Z,36.47
2018-07-26T13:40:43.778Z,36.52
2018-07-26T13:41:52.261Z,36.50
2018-07-26T13:43:00.758Z,36.51
2018-07-26T13:44:09.272Z,36.55
2018-07-26T13:45:17.741Z,36.79
2018-07-26T13:46:26.256Z,36.87
2018-07-26T13:47:35.264Z,36.68
2018-07-26T13:48:43.236Z,36.53
2018-07-26T13:49:51.728Z,36.65
2018-07-26T13:51:00.234Z,36.71
2018-07-26T13:52:08.725Z,37.10
2018-07-26T13:53:17.738Z,37.33
2018-07-26T13:54:25.744Z,37.35
2018-07-26T13:55:34.242Z,37.29
2018-07-26T13:56:42.747Z,37.22
2018-07-26T13:57:51.249Z,37.11
2018-07-26T13:59:00.746Z,36.90
2018-07-26T14:00:08.238Z,36.75
2018-07-26T14:01:17.728Z,36.84
2018-07-26T14:02:25.209Z,37.02
2018-07-26T14:03:33.703Z,37.28
2018-07-26T14:04:44.144Z,37.51
2018-07-26T14:05:50.695Z,37.68
2018-07-26T14:06:59.274Z,37.88
2018-07-26T14:08:07.684Z,38.14
2018-07-26T14:09:16.187Z,38.24
2018-07-26T14:10:24.686Z,38.31
2018-07-26T14:11:33.285Z,38.40
2018-07-26T14:12:41.697Z,38.47
2018-07-26T14:13:50.193Z,38.53
2018-07-26T14:14:58.697Z,38.53
2018-07-26T14:16:07.353Z,38.56
2018-07-26T14:17:15.696Z,38.52
2018-07-26T14:18:24.194Z,38.41
2018-07-26T14:19:32.686Z,38.25
2018-07-26T14:20:41.208Z,38.02
2018-07-26T14:21:49.668Z,37.81
2018-07-26T14:22:58.140Z,37.57
2018-07-26T14:24:06.589Z,37.34
2018-07-26T14:25:15.035Z,37.14